METAR Data
IDs: Format: Raw Decoded Include TAF

Data at: 0126 UTC 01 Mar 2021

SCCH 010100Z AUTO 20009KT //// R/////// NCD 24/11 Q1010